Terminal Aerodrome Forecast
Issued by NWS

Home | Current Version | Previous Version | Text Only | Print | Product List | Glossary On
Versions: 1 2 3 4 5 6 7 8 9 10 11 12 13 14 15 16 17
000
FTUS43 KDMX 232333
TAFFOD
TAF
KFOD 232333Z 2400/2424 17010G16KT P6SM BKN025 BKN045
     FM240600 17011KT P6SM VCTS SCT010CB OVC035
     FM241000 23007KT 5SM BR BKN008
     FM241400 32008KT P6SM SCT008 BKN040=

USA.gov is the U.S. government's official web portal to all federal, state and local government web resources and services.